»·PEaware :: N915TB KDEN-KHDN

N915TB :: KDEN-KHDN

FLIGHT INFORMATION

Flight Status: Arrived
Operator: Privately registered:
United States
More flights under this callsign
Pilot: Jake M. (20491)
Aircraft: SOCATA TBM-900
(TBM9)
More flights by this aircraft type
Origin: KDEN Denver Intl
United States
Destination: KHDN Yampa Valley
United States
More flights between these airports :: More routes between these airports
Route: +ROCKI5 RLG HIPNA
File this flight plan on PilotEdge
Remarks:
Altitude:
(Current/Filed)
16,000ft
Speed:
(Current/Filed)
280kts
Departed: 09-Apr-20 06:05 PM
Arrived: 09-Apr-20 06:37 PM
Distance/Time
Traveled:
123nm/0:31
Distance/Time
To Go:
Arrived

Flight Plot

Page will automatically refresh every two minutes.

Flight plan parsing failed; only flown route is shown


Map Options




Map Legend


Flown Route
Filed Route
Departure Airport
Arrival Airport
Navaid (VOR, NDB)
Fix

Horizontal Profiles

Position Reports

Time Latitude Longitude Heading Altitude Ground
Speed
09-Apr-20 17:53 39.839840 -104.664908 90 5434ft 0kts
09-Apr-20 17:54 39.839840 -104.664908 90 5434ft 0kts
09-Apr-20 17:55 39.839840 -104.664908 90 5434ft 0kts
09-Apr-20 17:56 39.839840 -104.664908 90 5434ft 0kts
09-Apr-20 17:57 39.839840 -104.664908 90 5434ft 0kts
09-Apr-20 17:58 39.839840 -104.664883 90 5434ft 2kts
09-Apr-20 17:59 39.842331 -104.662519 359 5434ft 22kts
09-Apr-20 18:00 39.849608 -104.662458 1 5434ft 28kts
09-Apr-20 18:01 39.857785 -104.662305 0 5434ft 28kts
09-Apr-20 18:02 39.861043 -104.661438 89 5434ft 0kts
09-Apr-20 18:03 39.861043 -104.661431 89 5434ft 1kts
09-Apr-20 18:04 39.851816 -104.660310 176 5460ft 119kts
09-Apr-20 18:05 39.823937 -104.683099 276 7029ft 161kts
09-Apr-20 18:06 39.826340 -104.740998 272 9201ft 161kts
09-Apr-20 18:07 39.829133 -104.807894 272 10038ft 227kts
09-Apr-20 18:08 39.831457 -104.887253 273 11851ft 209kts
09-Apr-20 18:09 39.841608 -104.958904 282 13656ft 201kts
09-Apr-20 18:11 39.855188 -105.030586 282 15179ft 205kts
09-Apr-20 18:12 39.869661 -105.106718 282 16016ft 231kts
09-Apr-20 18:13 39.886492 -105.195501 282 16005ft 256kts
09-Apr-20 18:14 39.904086 -105.288790 282 16000ft 264kts
09-Apr-20 18:15 39.921944 -105.383841 282 16000ft 266kts
09-Apr-20 18:16 39.939815 -105.479429 281 15999ft 267kts
09-Apr-20 18:17 39.957504 -105.574549 281 15999ft 268kts
09-Apr-20 18:18 39.973864 -105.671158 271 15998ft 267kts
09-Apr-20 18:19 39.977811 -105.769135 271 16001ft 267kts
09-Apr-20 18:20 39.981710 -105.868046 270 16062ft 265kts
09-Apr-20 18:21 39.985507 -105.966800 271 16043ft 267kts
09-Apr-20 18:22 39.989267 -106.066703 271 16024ft 268kts
09-Apr-20 18:23 39.992953 -106.166945 271 16019ft 268kts
09-Apr-20 18:24 39.996575 -106.267896 271 16018ft 269kts
09-Apr-20 18:25 40.000055 -106.367098 270 16018ft 269kts
09-Apr-20 18:26 40.013983 -106.462295 304 16027ft 272kts
09-Apr-20 18:27 40.060576 -106.543371 304 16018ft 273kts
09-Apr-20 18:28 40.106883 -106.624247 304 16022ft 273kts
09-Apr-20 18:29 40.153184 -106.705283 304 16027ft 273kts
09-Apr-20 18:29 40.191321 -106.772219 304 15613ft 275kts
09-Apr-20 18:31 40.246500 -106.869309 305 13730ft 284kts
09-Apr-20 18:32 40.296154 -106.945152 312 12195ft 264kts
09-Apr-20 18:32 40.339140 -107.003457 314 10945ft 252kts
09-Apr-20 18:33 40.385953 -107.070754 313 9704ft 253kts
09-Apr-20 18:34 40.430908 -107.133450 313 8188ft 213kts
09-Apr-20 18:35 40.465875 -107.178277 312 7040ft 139kts
09-Apr-20 18:36 40.480195 -107.213331 10 6605ft 26kts
09-Apr-20 18:37 40.482067 -107.216891 297 6605ft 10kts
09-Apr-20 18:38 40.483075 -107.218653 335 6605ft 0kts
09-Apr-20 18:39 40.483075 -107.218653 335 6605ft 0kts
09-Apr-20 18:40 40.483075 -107.218653 335 6605ft 0kts
09-Apr-20 18:41 40.483075 -107.218653 335 6605ft 0kts
09-Apr-20 18:42 40.483075 -107.218653 335 6605ft 0kts
09-Apr-20 18:43 40.483075 -107.218653 335 6605ft 0kts
09-Apr-20 18:44 40.483075 -107.218653 335 6605ft 0kts
09-Apr-20 18:45 40.483075 -107.218653 335 6605ft 0kts
09-Apr-20 18:46 40.483075 -107.218653 335 6605ft 0kts
09-Apr-20 18:47 40.483075 -107.218653 335 6605ft 0kts
09-Apr-20 18:48 40.483075 -107.218653 335 6605ft 0kts
09-Apr-20 18:49 40.483075 -107.218653 335 6605ft 0kts
09-Apr-20 18:50 40.483075 -107.218653 335 6605ft 0kts

Navigation Log

Ident Type
Flight plan parsing failed, navigation log unavailable